Time;durP1;ratioP1;P1;durP2;ratioP2;P2;SDS_P1;SDS_P2;PMS_P1;PMS_P2;Temp;Humidity;BMP_temperature;BMP_pressure;BME280_temperature;BME280_humidity;BME280_pressure;Samples;Min_cycle;Max_cycle;Signal;HPM_P1;HPM_P2
2023/12/30 00:00:10;;;;;;;30.15;22.30;;;9.40;62.10;;;;;;349634;28;976;-55
2023/12/30 00:00:21;;;;;;;30.27;22.27;;;9.50;62.20;;;;;;349562;28;1379;-55
2023/12/30 00:00:31;;;;;;;28.88;22.52;;;9.50;62.20;;;;;;349692;28;936;-54
2023/12/30 00:00:42;;;;;;;27.20;21.60;;;9.50;62.20;;;;;;349706;28;908;-55
2023/12/30 00:00:53;;;;;;;27.15;21.25;;;9.50;62.20;;;;;;349632;28;1051;-56
2023/12/30 00:01:04;;;;;;;26.77;21.15;;;9.50;62.20;;;;;;349750;28;1012;-55
2023/12/30 00:01:15;;;;;;;26.95;21.63;;;9.50;62.20;;;;;;349695;28;1023;-55
2023/12/30 00:01:26;;;;;;;24.83;21.70;;;9.40;62.20;;;;;;349699;28;1040;-55
2023/12/30 00:01:37;;;;;;;24.98;21.48;;;9.40;62.20;;;;;;349671;28;1201;-55
2023/12/30 00:01:47;;;;;;;26.02;21.05;;;9.40;62.20;;;;;;349745;28;1091;-56
2023/12/30 00:01:58;;;;;;;27.25;21.25;;;9.40;62.20;;;;;;349731;28;862;-57
2023/12/30 00:02:09;;;;;;;27.58;21.45;;;9.50;62.20;;;;;;349689;28;1010;-56
2023/12/30 00:02:20;;;;;;;26.60;21.40;;;9.40;62.20;;;;;;349647;28;1112;-55
2023/12/30 00:02:30;;;;;;;27.60;21.42;;;9.40;62.20;;;;;;349674;28;1043;-55
2023/12/30 00:02:41;;;;;;;27.73;21.20;;;9.40;62.20;;;;;;349660;28;1116;-55
2023/12/30 00:02:52;;;;;;;26.83;21.15;;;9.40;62.20;;;;;;349606;28;996;-55
2023/12/30 00:03:03;;;;;;;24.60;21.08;;;9.40;62.30;;;;;;349695;28;1087;-55
2023/12/30 00:03:14;;;;;;;24.88;20.85;;;9.40;62.20;;;;;;349648;28;1477;-55
2023/12/30 00:03:25;;;;;;;26.25;21.35;;;9.40;62.20;;;;;;349653;28;1524;-55
2023/12/30 00:03:36;;;;;;;27.75;21.50;;;9.40;62.20;;;;;;349588;28;1095;-57
2023/12/30 00:03:48;;;;;;;29.88;21.92;;;9.40;62.20;;;;;;349704;28;953;-56
2023/12/30 00:03:58;;;;;;;29.23;21.65;;;9.40;62.20;;;;;;349660;28;1429;-55
2023/12/30 00:04:09;;;;;;;27.70;21.03;;;9.40;62.20;;;;;;349679;28;1020;-56
2023/12/30 00:04:20;;;;;;;26.13;20.92;;;9.40;62.10;;;;;;349636;28;920;-56
2023/12/30 00:04:31;;;;;;;26.15;20.48;;;9.40;62.20;;;;;;349737;28;891;-56
2023/12/30 00:04:42;;;;;;;26.13;20.13;;;9.40;62.20;;;;;;349725;28;948;-55
2023/12/30 00:04:52;;;;;;;24.35;19.98;;;9.40;62.20;;;;;;349680;28;1052;-55
2023/12/30 00:05:03;;;;;;;25.48;20.95;;;9.40;62.20;;;;;;349638;28;1094;-55
2023/12/30 00:05:16;;;;;;;25.48;21.08;;;9.40;62.20;;;;;;349678;28;1171;-55
2023/12/30 00:05:28;;;;;;;26.35;20.95;;;9.40;62.20;;;;;;349671;28;1413;-56
2023/12/30 00:05:39;;;;;;;25.10;19.88;;;9.40;62.20;;;;;;349732;28;942;-56
2023/12/30 00:05:50;;;;;;;26.03;19.87;;;9.40;62.20;;;;;;349632;28;1008;-56
2023/12/30 00:06:00;;;;;;;26.75;19.98;;;9.40;62.20;;;;;;349655;28;1032;-55
2023/12/30 00:06:11;;;;;;;27.48;20.67;;;9.40;62.30;;;;;;349682;28;1174;-54
2023/12/30 00:06:22;;;;;;;27.23;20.85;;;9.40;62.20;;;;;;349668;28;1128;-55
2023/12/30 00:06:34;;;;;;;25.88;20.75;;;9.40;62.30;;;;;;349559;28;1717;-54
2023/12/30 00:06:45;;;;;;;26.88;20.73;;;9.40;62.30;;;;;;349762;28;901;-54
2023/12/30 00:06:55;;;;;;;26.20;20.55;;;9.40;62.20;;;;;;349762;28;846;-55
2023/12/30 00:07:06;;;;;;;26.10;20.67;;;9.40;62.30;;;;;;349700;28;842;-55
2023/12/30 00:07:17;;;;;;;26.00;20.30;;;9.40;62.20;;;;;;349630;28;900;-55
2023/12/30 00:07:28;;;;;;;26.05;20.38;;;9.40;62.30;;;;;;349731;28;916;-56
2023/12/30 00:07:38;;;;;;;25.20;20.30;;;9.40;62.30;;;;;;349708;28;1057;-54
2023/12/30 00:07:49;;;;;;;24.27;20.10;;;9.40;62.30;;;;;;349702;28;1151;-54
2023/12/30 00:08:00;;;;;;;24.38;19.75;;;9.40;62.40;;;;;;349524;28;1423;-55
2023/12/30 00:08:11;;;;;;;24.17;19.83;;;9.40;62.50;;;;;;349747;28;949;-55
2023/12/30 00:08:21;;;;;;;23.70;20.08;;;9.40;62.50;;;;;;349678;28;814;-56
2023/12/30 00:08:32;;;;;;;23.63;20.13;;;9.40;62.40;;;;;;349705;28;1131;-55
2023/12/30 00:08:43;;;;;;;25.23;20.97;;;9.40;62.40;;;;;;349610;28;1079;-55
2023/12/30 00:08:54;;;;;;;27.52;21.05;;;9.30;62.40;;;;;;349652;28;1262;-55
2023/12/30 00:09:04;;;;;;;27.13;20.63;;;9.30;62.40;;;;;;349689;28;988;-55
2023/12/30 00:09:15;;;;;;;25.77;19.63;;;9.30;62.40;;;;;;349654;28;997;-56
2023/12/30 00:09:26;;;;;;;25.02;19.85;;;9.40;62.50;;;;;;349627;28;899;-56
2023/12/30 00:09:37;;;;;;;25.63;19.80;;;9.30;62.50;;;;;;349755;28;878;-55
2023/12/30 00:09:48;;;;;;;26.27;20.48;;;9.40;62.50;;;;;;349677;28;949;-56
2023/12/30 00:09:59;;;;;;;24.70;20.63;;;9.30;62.50;;;;;;349654;28;1194;-55
2023/12/30 00:10:10;;;;;;;24.13;20.40;;;9.40;62.50;;;;;;349590;28;1040;-55
2023/12/30 00:10:21;;;;;;;23.58;19.80;;;9.30;62.40;;;;;;349723;28;1059;-55
2023/12/30 00:10:32;;;;;;;24.48;20.00;;;9.40;62.50;;;;;;349662;28;1013;-55
2023/12/30 00:10:42;;;;;;;24.37;20.17;;;9.40;62.50;;;;;;349625;28;1506;-56
2023/12/30 00:10:53;;;;;;;24.88;20.25;;;9.30;62.40;;;;;;349619;28;1036;-54
2023/12/30 00:11:04;;;;;;;24.13;19.60;;;9.40;62.50;;;;;;349665;28;1016;-55
2023/12/30 00:11:15;;;;;;;24.60;19.63;;;9.30;62.40;;;;;;349702;28;1048;-55
2023/12/30 00:11:26;;;;;;;24.77;19.60;;;9.40;62.40;;;;;;349767;28;861;-55
2023/12/30 00:11:36;;;;;;;23.90;19.85;;;9.40;62.40;;;;;;349578;28;1047;-55
2023/12/30 00:11:47;;;;;;;23.70;19.58;;;9.30;62.40;;;;;;349735;28;880;-56
2023/12/30 00:11:58;;;;;;;25.70;19.47;;;9.40;62.50;;;;;;349696;28;976;-55
2023/12/30 00:12:09;;;;;;;25.30;19.42;;;9.40;62.50;;;;;;349616;28;1106;-55
2023/12/30 00:12:20;;;;;;;25.20;19.80;;;9.40;62.50;;;;;;349753;28;957;-54
2023/12/30 00:12:31;;;;;;;23.40;20.23;;;9.30;62.50;;;;;;349703;28;1782;-54
2023/12/30 00:12:42;;;;;;;24.37;20.10;;;9.30;62.50;;;;;;349674;28;1105;-52
2023/12/30 00:12:52;;;;;;;26.00;20.02;;;9.30;62.40;;;;;;349691;28;1111;-54
2023/12/30 00:13:03;;;;;;;26.50;20.10;;;9.30;62.50;;;;;;349640;28;1451;-55
2023/12/30 00:13:14;;;;;;;25.80;20.38;;;9.30;62.50;;;;;;349567;28;944;-56
2023/12/30 00:13:25;;;;;;;24.02;20.50;;;9.30;62.50;;;;;;349673;28;1626;-55
2023/12/30 00:13:37;;;;;;;25.07;21.20;;;9.30;62.50;;;;;;349701;28;1923;-54
2023/12/30 00:13:48;;;;;;;26.13;21.60;;;9.30;62.50;;;;;;349637;28;1040;-55
2023/12/30 00:13:59;;;;;;;27.13;22.60;;;9.30;62.50;;;;;;349715;28;1926;-55
2023/12/30 00:14:10;;;;;;;27.85;22.55;;;9.30;62.50;;;;;;349687;28;985;-55
2023/12/30 00:14:21;;;;;;;28.15;22.35;;;9.30;62.50;;;;;;349643;28;1063;-55
2023/12/30 00:14:31;;;;;;;27.70;21.50;;;9.30;62.50;;;;;;349666;28;1291;-55
2023/12/30 00:14:42;;;;;;;25.38;20.35;;;9.30;62.50;;;;;;349653;28;1131;-54
2023/12/30 00:14:53;;;;;;;25.50;20.20;;;9.30;62.50;;;;;;349615;28;1166;-55
2023/12/30 00:15:04;;;;;;;27.42;20.30;;;9.30;62.60;;;;;;349698;28;1048;-54
2023/12/30 00:15:15;;;;;;;27.20;20.65;;;9.30;62.50;;;;;;349748;28;846;-58
2023/12/30 00:15:26;;;;;;;27.75;20.55;;;9.30;62.50;;;;;;349585;28;1239;-55
2023/12/30 00:15:37;;;;;;;25.83;20.42;;;9.30;62.50;;;;;;349651;28;1123;-55
2023/12/30 00:15:48;;;;;;;27.15;20.50;;;9.30;62.50;;;;;;349647;28;1979;-54
2023/12/30 00:15:59;;;;;;;25.90;20.13;;;9.30;62.50;;;;;;349645;28;1838;-54
2023/12/30 00:16:13;;;;;;;24.27;19.75;;;9.30;62.60;;;;;;349746;28;878;-56
2023/12/30 00:16:26;;;;;;;25.02;19.60;;;9.30;62.60;;;;;;349675;28;1551;-54
2023/12/30 00:16:39;;;;;;;26.02;19.88;;;9.30;62.60;;;;;;349566;28;1676;-56
2023/12/30 00:16:50;;;;;;;27.08;20.08;;;9.30;62.60;;;;;;349706;28;1008;-55
2023/12/30 00:17:00;;;;;;;26.52;20.08;;;9.30;62.60;;;;;;349643;28;1006;-55
2023/12/30 00:17:11;;;;;;;26.20;19.70;;;9.30;62.60;;;;;;349683;28;854;-55
2023/12/30 00:17:22;;;;;;;25.20;19.65;;;9.20;62.60;;;;;;349641;28;1040;-54
2023/12/30 00:17:33;;;;;;;26.08;20.05;;;9.30;62.60;;;;;;349697;28;1087;-56
2023/12/30 00:17:43;;;;;;;25.77;20.23;;;9.30;62.70;;;;;;349738;28;1024;-55
2023/12/30 00:17:54;;;;;;;25.40;20.55;;;9.30;62.60;;;;;;349567;28;1632;-55
2023/12/30 00:18:05;;;;;;;24.40;20.48;;;9.30;62.60;;;;;;349711;28;2070;-54
2023/12/30 00:18:16;;;;;;;24.85;20.35;;;9.30;62.60;;;;;;349581;28;1088;-55
2023/12/30 00:18:26;;;;;;;24.35;19.83;;;9.20;62.60;;;;;;349706;28;1000;-54
2023/12/30 00:18:37;;;;;;;24.67;19.63;;;9.20;62.60;;;;;;349729;28;1039;-55
2023/12/30 00:18:48;;;;;;;24.35;19.60;;;9.20;62.60;;;;;;349629;28;877;-54
2023/12/30 00:18:59;;;;;;;23.88;19.35;;;9.20;62.60;;;;;;349676;28;1000;-56
2023/12/30 00:19:11;;;;;;;24.75;19.17;;;9.30;62.60;;;;;;349656;28;887;-56
2023/12/30 00:19:22;;;;;;;26.17;19.65;;;9.30;62.60;;;;;;349698;28;993;-55
2023/12/30 00:19:34;;;;;;;26.50;20.23;;;9.30;62.70;;;;;;349575;28;1538;-55
2023/12/30 00:19:46;;;;;;;25.75;20.00;;;9.20;62.70;;;;;;349665;28;996;-55
2023/12/30 00:19:57;;;;;;;24.77;19.30;;;9.20;62.70;;;;;;349651;28;1020;-55
2023/12/30 00:20:08;;;;;;;24.52;19.13;;;9.20;62.70;;;;;;349704;28;897;-55
2023/12/30 00:20:20;;;;;;;24.45;19.50;;;9.30;62.70;;;;;;349581;28;928;-55
2023/12/30 00:20:30;;;;;;;24.08;19.95;;;9.30;62.60;;;;;;349683;28;924;-55
2023/12/30 00:20:41;;;;;;;24.08;19.75;;;9.20;62.60;;;;;;349615;28;1111;-55
2023/12/30 00:20:52;;;;;;;23.92;19.30;;;9.20;62.60;;;;;;349743;28;877;-54
2023/12/30 00:21:03;;;;;;;24.02;19.35;;;9.20;62.60;;;;;;349654;28;1136;-56
2023/12/30 00:21:19;;;;;;;23.95;19.88;;;9.20;62.60;;;;;;349660;28;1095;-56
2023/12/30 00:21:30;;;;;;;23.92;19.25;;;9.20;62.60;;;;;;349565;28;2038;-55
2023/12/30 00:21:40;;;;;;;23.80;19.15;;;9.20;62.60;;;;;;349680;28;1100;-55
2023/12/30 00:21:52;;;;;;;23.77;19.30;;;9.20;62.60;;;;;;349688;28;1079;-55
2023/12/30 00:22:03;;;;;;;23.95;19.58;;;9.30;62.60;;;;;;349693;28;1052;-54
2023/12/30 00:22:14;;;;;;;24.05;19.58;;;9.20;62.60;;;;;;349582;28;1306;-57
2023/12/30 00:22:25;;;;;;;24.90;19.98;;;9.20;62.50;;;;;;349668;28;1000;-55
2023/12/30 00:22:35;;;;;;;25.70;20.48;;;9.20;62.50;;;;;;349743;28;878;-56
2023/12/30 00:22:46;;;;;;;27.02;20.30;;;9.20;62.50;;;;;;349668;28;1012;-56
2023/12/30 00:22:57;;;;;;;27.60;19.83;;;9.20;62.50;;;;;;349585;28;1083;-56
2023/12/30 00:23:08;;;;;;;26.25;19.48;;;9.20;62.60;;;;;;349708;28;866;-55
2023/12/30 00:23:18;;;;;;;25.17;19.25;;;9.20;62.60;;;;;;349693;28;874;-56
2023/12/30 00:23:29;;;;;;;23.80;19.25;;;9.20;62.60;;;;;;349656;28;1032;-54
2023/12/30 00:23:42;;;;;;;23.83;19.38;;;9.20;62.50;;;;;;349616;28;1270;-56
2023/12/30 00:23:53;;;;;;;23.64;19.86;;;9.20;62.60;;;;;;349667;28;955;-56
2023/12/30 00:24:04;;;;;;;23.83;19.80;;;9.20;62.60;;;;;;349696;28;849;-56
2023/12/30 00:24:15;;;;;;;22.40;19.15;;;9.20;62.60;;;;;;349685;28;1094;-56
2023/12/30 00:24:25;;;;;;;21.53;18.83;;;9.20;62.60;;;;;;349632;28;944;-55
2023/12/30 00:24:36;;;;;;;22.52;19.38;;;9.20;62.60;;;;;;349647;28;1084;-55
2023/12/30 00:24:47;;;;;;;24.38;19.67;;;9.20;62.50;;;;;;349681;28;886;-57
2023/12/30 00:24:58;;;;;;;26.33;19.63;;;9.20;62.50;;;;;;349699;28;1111;-56
2023/12/30 00:25:10;;;;;;;24.80;19.10;;;9.20;62.50;;;;;;349651;28;890;-59
2023/12/30 00:25:22;;;;;;;24.08;19.38;;;9.20;62.50;;;;;;349637;28;1336;-58
2023/12/30 00:25:33;;;;;;;22.15;19.30;;;9.20;62.50;;;;;;349692;28;1202;-56
2023/12/30 00:25:43;;;;;;;23.63;19.77;;;9.20;62.50;;;;;;349737;28;1391;-55
2023/12/30 00:25:54;;;;;;;24.13;19.93;;;9.20;62.50;;;;;;349542;28;1494;-58
2023/12/30 00:26:05;;;;;;;23.43;18.93;;;9.20;62.50;;;;;;349689;28;1665;-58
2023/12/30 00:26:25;;;;;;;22.15;18.05;;;9.20;62.60;;;;;;349680;28;1044;-55
2023/12/30 00:26:36;;;;;;;24.28;19.14;;;9.20;62.50;;;;;;349549;28;1056;-56
2023/12/30 00:26:47;;;;;;;24.23;19.40;;;9.20;62.50;;;;;;349694;28;1231;-56
2023/12/30 00:26:57;;;;;;;23.63;19.50;;;9.20;62.50;;;;;;349735;28;921;-55
2023/12/30 00:27:08;;;;;;;25.20;19.60;;;9.20;62.50;;;;;;349690;28;1331;-56
2023/12/30 00:27:19;;;;;;;25.83;19.63;;;9.20;62.50;;;;;;349590;28;921;-54
2023/12/30 00:27:30;;;;;;;24.48;19.38;;;9.20;62.50;;;;;;349734;28;822;-55
2023/12/30 00:27:40;;;;;;;23.57;19.23;;;9.20;62.50;;;;;;349729;28;1084;-56
2023/12/30 00:27:51;;;;;;;23.05;18.83;;;9.20;62.50;;;;;;349725;28;1047;-55
2023/12/30 00:28:02;;;;;;;23.10;18.38;;;9.20;62.50;;;;;;349543;28;1095;-56
2023/12/30 00:28:13;;;;;;;22.50;18.13;;;9.20;62.50;;;;;;349652;28;1086;-56
2023/12/30 00:28:24;;;;;;;23.77;18.73;;;9.20;62.60;;;;;;349684;28;1167;-54
2023/12/30 00:28:34;;;;;;;23.33;18.52;;;9.20;62.50;;;;;;349668;28;1036;-54
2023/12/30 00:28:45;;;;;;;21.70;18.17;;;9.20;62.50;;;;;;349632;28;1040;-54
2023/12/30 00:28:56;;;;;;;21.20;17.80;;;9.20;62.50;;;;;;349729;28;853;-55
2023/12/30 00:29:07;;;;;;;21.15;17.77;;;9.20;62.50;;;;;;349617;28;1051;-54
2023/12/30 00:29:17;;;;;;;22.90;18.23;;;9.20;62.50;;;;;;349554;28;1313;-54
2023/12/30 00:29:28;;;;;;;24.75;18.70;;;9.20;62.50;;;;;;349643;28;1548;-56
2023/12/30 00:29:40;;;;;;;24.43;18.13;;;9.20;62.50;;;;;;349701;28;1091;-55
2023/12/30 00:29:50;;;;;;;25.83;18.10;;;9.20;62.50;;;;;;349606;28;1086;-56
2023/12/30 00:30:02;;;;;;;26.67;19.08;;;9.20;62.50;;;;;;349668;28;1249;-55
2023/12/30 00:30:13;;;;;;;26.85;20.05;;;9.20;62.50;;;;;;349577;28;1052;-55
2023/12/30 00:30:24;;;;;;;24.80;19.35;;;9.20;62.50;;;;;;349707;28;879;-56
2023/12/30 00:30:35;;;;;;;22.80;18.10;;;9.20;62.50;;;;;;349696;28;890;-54
2023/12/30 00:30:45;;;;;;;22.90;17.70;;;9.10;62.50;;;;;;349646;28;1108;-56
2023/12/30 00:30:56;;;;;;;23.20;17.83;;;9.20;62.50;;;;;;349600;28;942;-55
2023/12/30 00:31:07;;;;;;;23.63;18.20;;;9.20;62.50;;;;;;349696;28;936;-56
2023/12/30 00:31:26;;;;;;;24.00;18.38;;;9.20;62.50;;;;;;349705;28;834;-55
2023/12/30 00:31:37;;;;;;;22.23;17.90;;;9.20;62.50;;;;;;349568;28;988;-55
2023/12/30 00:31:48;;;;;;;22.00;17.42;;;9.10;62.50;;;;;;349665;28;977;-55
2023/12/30 00:32:02;;;;;;;20.85;17.45;;;9.20;62.50;;;;;;349593;28;1796;-55
2023/12/30 00:32:13;;;;;;;21.45;18.23;;;9.20;62.50;;;;;;349656;28;1853;-56
2023/12/30 00:32:24;;;;;;;22.00;18.63;;;9.10;62.50;;;;;;349609;28;1044;-54
2023/12/30 00:32:34;;;;;;;21.80;18.38;;;9.10;62.50;;;;;;349688;28;1040;-54
2023/12/30 00:32:45;;;;;;;21.48;18.17;;;9.10;62.50;;;;;;349684;28;1787;-55
2023/12/30 00:32:56;;;;;;;22.43;18.27;;;9.20;62.50;;;;;;349620;28;1011;-56
2023/12/30 00:33:07;;;;;;;22.42;18.10;;;9.10;62.50;;;;;;349664;28;845;-55
2023/12/30 00:33:17;;;;;;;22.42;17.75;;;9.20;62.50;;;;;;349634;28;1152;-55
2023/12/30 00:33:28;;;;;;;21.67;17.58;;;9.10;62.50;;;;;;349608;28;930;-56
2023/12/30 00:33:39;;;;;;;21.77;17.83;;;9.10;62.50;;;;;;349637;28;1112;-55
2023/12/30 00:33:51;;;;;;;22.85;17.75;;;9.20;62.60;;;;;;349682;28;1004;-55
2023/12/30 00:34:02;;;;;;;23.35;17.95;;;9.10;62.50;;;;;;349580;28;1058;-55
2023/12/30 00:34:13;;;;;;;23.10;17.55;;;9.10;62.50;;;;;;349665;28;970;-55
2023/12/30 00:34:24;;;;;;;21.83;17.40;;;9.10;62.50;;;;;;349527;28;1055;-56
2023/12/30 00:34:35;;;;;;;21.17;17.10;;;9.10;62.50;;;;;;349698;28;921;-57
2023/12/30 00:34:45;;;;;;;21.33;17.40;;;9.10;62.50;;;;;;349728;28;822;-55
2023/12/30 00:34:56;;;;;;;21.60;17.17;;;9.10;62.50;;;;;;349528;28;1632;-56
2023/12/30 00:35:07;;;;;;;22.00;17.17;;;9.10;62.50;;;;;;349601;28;1541;-55
2023/12/30 00:35:18;;;;;;;21.55;16.88;;;9.10;62.50;;;;;;349588;28;913;-55
2023/12/30 00:35:29;;;;;;;20.00;16.67;;;9.10;62.50;;;;;;349614;28;985;-54
2023/12/30 00:35:40;;;;;;;22.63;17.35;;;9.10;62.50;;;;;;349699;28;1040;-55
2023/12/30 00:35:51;;;;;;;23.10;17.60;;;9.10;62.50;;;;;;349504;28;1910;-56
2023/12/30 00:36:03;;;;;;;23.27;17.50;;;9.10;62.50;;;;;;349568;28;977;-55
2023/12/30 00:36:14;;;;;;;21.08;16.90;;;9.10;62.60;;;;;;349624;28;912;-54
2023/12/30 00:36:26;;;;;;;22.08;17.58;;;9.10;62.50;;;;;;349543;28;1191;-55
2023/12/30 00:36:41;;;;;;;22.38;17.52;;;9.10;62.50;;;;;;349487;28;1354;-55
2023/12/30 00:36:52;;;;;;;22.63;17.25;;;9.10;62.60;;;;;;349671;28;972;-55
2023/12/30 00:37:03;;;;;;;23.23;17.43;;;9.10;62.60;;;;;;349579;28;1167;-54
2023/12/30 00:37:18;;;;;;;22.63;17.42;;;9.10;62.60;;;;;;349646;28;920;-56
2023/12/30 00:37:29;;;;;;;23.35;18.00;;;9.10;62.60;;;;;;349658;28;1023;-55
2023/12/30 00:37:40;;;;;;;23.33;17.77;;;9.10;62.60;;;;;;349590;28;1174;-55
2023/12/30 00:37:53;;;;;;;23.83;17.63;;;9.10;62.70;;;;;;349587;28;1302;-56
2023/12/30 00:38:04;;;;;;;22.85;17.25;;;9.10;62.70;;;;;;349640;28;1067;-55
2023/12/30 00:38:14;;;;;;;21.83;17.27;;;9.10;62.70;;;;;;349653;28;1773;-55
2023/12/30 00:38:25;;;;;;;21.52;17.15;;;9.00;62.70;;;;;;349516;28;1136;-56
2023/12/30 00:38:36;;;;;;;22.42;17.25;;;9.10;62.70;;;;;;349595;28;1549;-55
2023/12/30 00:38:47;;;;;;;23.17;17.63;;;9.10;62.70;;;;;;349711;28;985;-54
2023/12/30 00:38:57;;;;;;;23.95;18.00;;;9.00;62.70;;;;;;349647;28;1283;-55
2023/12/30 00:39:08;;;;;;;22.20;17.77;;;9.10;62.70;;;;;;349546;28;1108;-56
2023/12/30 00:39:19;;;;;;;21.80;17.65;;;9.00;62.70;;;;;;349642;28;1123;-55
2023/12/30 00:39:30;;;;;;;23.05;17.58;;;9.00;62.80;;;;;;349649;28;1032;-55
2023/12/30 00:39:41;;;;;;;24.67;17.40;;;9.10;62.80;;;;;;349651;28;1004;-54
2023/12/30 00:39:53;;;;;;;24.20;17.42;;;9.10;62.80;;;;;;349577;28;1023;-55
2023/12/30 00:40:05;;;;;;;23.70;17.26;;;9.10;62.80;;;;;;349704;28;916;-55
2023/12/30 00:40:15;;;;;;;22.02;17.33;;;9.10;62.80;;;;;;349586;28;1922;-55
2023/12/30 00:40:26;;;;;;;22.25;17.67;;;9.10;62.80;;;;;;349614;28;1175;-55
2023/12/30 00:40:37;;;;;;;21.13;17.70;;;9.00;62.80;;;;;;349532;28;1001;-55
2023/12/30 00:40:48;;;;;;;20.55;17.63;;;9.00;62.80;;;;;;349625;28;1554;-55
2023/12/30 00:40:58;;;;;;;20.85;17.52;;;9.10;62.80;;;;;;349641;28;1024;-55
2023/12/30 00:41:09;;;;;;;21.38;17.55;;;9.10;62.80;;;;;;349688;28;858;-55
2023/12/30 00:41:21;;;;;;;21.30;17.42;;;9.10;62.80;;;;;;349580;28;985;-57
2023/12/30 00:41:32;;;;;;;20.27;17.27;;;9.10;62.80;;;;;;349630;28;858;-56
2023/12/30 00:41:43;;;;;;;20.08;17.33;;;9.10;62.80;;;;;;349674;28;1110;-55
2023/12/30 00:41:53;;;;;;;20.00;17.47;;;9.00;62.80;;;;;;349688;28;968;-55
2023/12/30 00:42:04;;;;;;;20.05;17.40;;;9.00;62.80;;;;;;349568;28;1048;-56
2023/12/30 00:42:15;;;;;;;20.38;17.08;;;9.00;62.80;;;;;;349665;28;874;-55
2023/12/30 00:42:26;;;;;;;21.65;16.95;;;9.00;62.80;;;;;;349683;28;1024;-59
2023/12/30 00:42:37;;;;;;;21.98;17.33;;;9.00;62.80;;;;;;349691;28;1051;-56
2023/12/30 00:42:48;;;;;;;22.90;17.63;;;9.00;62.80;;;;;;349594;28;1516;-56
2023/12/30 00:42:58;;;;;;;21.90;17.55;;;9.10;62.80;;;;;;349657;28;1865;-55
2023/12/30 00:43:09;;;;;;;22.03;17.73;;;9.00;62.80;;;;;;349665;28;1032;-55
2023/12/30 00:43:20;;;;;;;22.15;18.23;;;9.00;62.80;;;;;;349622;28;1096;-55
2023/12/30 00:43:32;;;;;;;23.50;18.17;;;9.00;62.90;;;;;;349571;28;906;-55
2023/12/30 00:43:42;;;;;;;23.67;17.60;;;9.00;62.90;;;;;;349672;28;1143;-55
2023/12/30 00:43:53;;;;;;;22.70;17.42;;;9.00;62.90;;;;;;349659;28;988;-55
2023/12/30 00:44:04;;;;;;;22.70;17.90;;;9.00;62.90;;;;;;349630;28;1016;-54
2023/12/30 00:44:15;;;;;;;22.00;18.17;;;9.00;62.90;;;;;;349576;28;1030;-55
2023/12/30 00:44:26;;;;;;;21.17;17.90;;;9.10;62.90;;;;;;349655;28;842;-54
2023/12/30 00:44:36;;;;;;;21.30;17.55;;;9.10;62.90;;;;;;349667;28;1104;-54
2023/12/30 00:44:47;;;;;;;21.88;17.50;;;9.00;62.90;;;;;;349621;28;1264;-54
2023/12/30 00:44:58;;;;;;;23.77;18.15;;;9.00;62.90;;;;;;349608;28;1077;-55
2023/12/30 00:45:09;;;;;;;23.05;18.13;;;9.00;62.90;;;;;;349601;28;1665;-56
2023/12/30 00:45:20;;;;;;;21.92;17.83;;;9.00;62.90;;;;;;349639;28;1096;-55
2023/12/30 00:45:31;;;;;;;21.15;17.30;;;9.00;62.90;;;;;;349677;28;1098;-55
2023/12/30 00:45:41;;;;;;;20.37;16.97;;;9.00;62.90;;;;;;349630;28;1119;-55
2023/12/30 00:45:52;;;;;;;21.30;17.33;;;9.00;62.90;;;;;;349645;28;1032;-55
2023/12/30 00:46:03;;;;;;;21.30;17.50;;;9.00;62.90;;;;;;349645;28;1879;-56
2023/12/30 00:46:14;;;;;;;22.65;17.95;;;9.10;62.90;;;;;;349639;28;867;-57
2023/12/30 00:46:25;;;;;;;22.92;18.05;;;9.00;62.90;;;;;;349540;28;1092;-56
2023/12/30 00:46:35;;;;;;;22.52;18.00;;;9.10;62.90;;;;;;349601;28;950;-55
2023/12/30 00:46:46;;;;;;;21.83;17.75;;;9.00;62.90;;;;;;349661;28;1107;-56
2023/12/30 00:46:57;;;;;;;22.17;17.83;;;9.10;62.90;;;;;;349629;28;1040;-56
2023/12/30 00:47:08;;;;;;;22.90;18.20;;;9.00;62.80;;;;;;349551;28;1074;-58
2023/12/30 00:47:19;;;;;;;23.13;18.48;;;9.10;62.90;;;;;;349625;28;1167;-56
2023/12/30 00:47:29;;;;;;;22.63;18.55;;;9.00;62.90;;;;;;349720;28;968;-56
2023/12/30 00:47:40;;;;;;;22.15;18.10;;;9.10;62.80;;;;;;349643;28;1112;-55
2023/12/30 00:47:52;;;;;;;22.90;18.05;;;9.00;62.80;;;;;;349531;28;1621;-56
2023/12/30 00:48:03;;;;;;;22.13;17.95;;;9.10;62.80;;;;;;349621;28;1139;-56
2023/12/30 00:48:13;;;;;;;23.13;18.70;;;9.00;62.80;;;;;;349572;28;1128;-55
2023/12/30 00:48:24;;;;;;;21.95;18.10;;;9.00;62.80;;;;;;349532;28;2198;-55
2023/12/30 00:48:35;;;;;;;22.67;18.02;;;9.00;62.80;;;;;;349666;28;1055;-55
2023/12/30 00:48:47;;;;;;;21.65;17.83;;;9.00;62.80;;;;;;349540;28;1020;-55
2023/12/30 00:48:58;;;;;;;22.67;18.23;;;9.00;62.80;;;;;;349526;28;1603;-55
2023/12/30 00:49:09;;;;;;;23.40;18.40;;;9.00;62.80;;;;;;349652;28;1020;-56
2023/12/30 00:49:19;;;;;;;22.43;17.80;;;9.00;62.80;;;;;;349683;28;1022;-56
2023/12/30 00:49:30;;;;;;;23.02;17.88;;;9.00;62.80;;;;;;349564;28;1201;-57
2023/12/30 00:49:41;;;;;;;22.60;17.92;;;9.00;62.80;;;;;;349681;28;1055;-55
2023/12/30 00:49:52;;;;;;;23.67;18.00;;;9.00;62.80;;;;;;349655;28;1016;-56
2023/12/30 00:50:03;;;;;;;23.85;18.00;;;9.00;62.80;;;;;;349712;28;861;-56
2023/12/30 00:50:13;;;;;;;24.40;18.40;;;9.00;62.80;;;;;;349566;28;1119;-56
2023/12/30 00:50:24;;;;;;;24.17;18.23;;;9.00;62.80;;;;;;349711;28;899;-55
2023/12/30 00:50:35;;;;;;;24.08;17.85;;;9.00;62.80;;;;;;349633;28;1822;-55
2023/12/30 00:50:45;;;;;;;25.05;17.83;;;9.10;62.80;;;;;;349689;28;1043;-55
2023/12/30 00:50:56;;;;;;;26.40;18.33;;;9.00;62.80;;;;;;349575;28;1446;-55
2023/12/30 00:51:07;;;;;;;25.88;18.73;;;9.00;62.80;;;;;;349703;28;868;-55
2023/12/30 00:51:18;;;;;;;24.93;18.53;;;9.00;62.80;;;;;;349594;28;1223;-54
2023/12/30 00:51:28;;;;;;;22.88;18.13;;;9.00;62.80;;;;;;349650;28;1349;-55
2023/12/30 00:51:40;;;;;;;23.35;17.85;;;9.00;62.80;;;;;;349580;28;1048;-55
2023/12/30 00:51:51;;;;;;;23.52;18.20;;;9.00;62.80;;;;;;349671;28;1126;-55
2023/12/30 00:52:02;;;;;;;23.33;18.40;;;9.00;62.80;;;;;;349676;28;1077;-54
2023/12/30 00:52:12;;;;;;;22.50;18.45;;;9.00;62.80;;;;;;349632;28;915;-56
2023/12/30 00:52:23;;;;;;;23.67;18.23;;;9.10;62.80;;;;;;349640;28;849;-55
2023/12/30 00:52:34;;;;;;;23.95;18.33;;;9.00;62.80;;;;;;349652;28;1028;-55
2023/12/30 00:52:44;;;;;;;24.55;18.60;;;9.00;62.80;;;;;;349551;28;1198;-55
2023/12/30 00:52:55;;;;;;;22.60;18.20;;;9.00;62.80;;;;;;349645;28;1407;-55
2023/12/30 00:53:06;;;;;;;21.90;17.88;;;9.00;62.80;;;;;;349639;28;2081;-56
2023/12/30 00:53:17;;;;;;;22.85;17.83;;;9.00;62.80;;;;;;349573;28;1127;-54
2023/12/30 00:53:29;;;;;;;23.73;17.98;;;9.00;62.80;;;;;;349631;28;1103;-55
2023/12/30 00:53:40;;;;;;;22.33;17.25;;;9.00;62.80;;;;;;349638;28;1004;-55
2023/12/30 00:53:50;;;;;;;20.90;17.08;;;9.00;62.80;;;;;;349539;28;1131;-55
2023/12/30 00:54:02;;;;;;;21.37;17.57;;;9.00;62.80;;;;;;349663;28;1209;-56
2023/12/30 00:54:12;;;;;;;22.08;18.42;;;9.00;62.80;;;;;;349614;28;1126;-55
2023/12/30 00:54:23;;;;;;;23.02;18.83;;;9.00;62.70;;;;;;349502;28;1260;-56
2023/12/30 00:54:34;;;;;;;24.47;18.87;;;9.00;62.70;;;;;;349576;28;1032;-55
2023/12/30 00:54:45;;;;;;;24.80;18.38;;;9.10;62.70;;;;;;349622;28;2217;-55
2023/12/30 00:54:55;;;;;;;24.15;18.08;;;9.00;62.80;;;;;;349554;28;1115;-55
2023/12/30 00:55:07;;;;;;;22.42;17.52;;;9.00;62.80;;;;;;349715;28;905;-55
2023/12/30 00:55:17;;;;;;;21.42;17.55;;;9.00;62.80;;;;;;349617;28;1012;-56
2023/12/30 00:55:28;;;;;;;21.45;17.95;;;9.00;62.70;;;;;;349547;28;996;-55
2023/12/30 00:55:39;;;;;;;20.95;18.05;;;9.00;62.70;;;;;;349616;28;1083;-57
2023/12/30 00:55:50;;;;;;;22.33;18.08;;;9.00;62.70;;;;;;349534;28;1986;-56
2023/12/30 00:56:00;;;;;;;22.00;17.53;;;9.00;62.70;;;;;;349560;28;1055;-56
2023/12/30 00:56:11;;;;;;;22.33;17.13;;;9.00;62.60;;;;;;349700;28;1059;-55
2023/12/30 00:56:22;;;;;;;21.55;17.10;;;9.00;62.60;;;;;;349663;28;869;-54
2023/12/30 00:56:33;;;;;;;21.92;17.17;;;9.00;62.60;;;;;;349569;28;1134;-55
2023/12/30 00:56:44;;;;;;;21.67;17.23;;;9.00;62.50;;;;;;349608;28;1393;-54
2023/12/30 00:56:55;;;;;;;21.17;16.73;;;9.00;62.50;;;;;;349516;28;1135;-55
2023/12/30 00:57:06;;;;;;;21.92;17.40;;;9.00;62.50;;;;;;349682;28;1000;-56
2023/12/30 00:57:17;;;;;;;22.20;17.35;;;9.00;62.50;;;;;;349583;28;1044;-55
2023/12/30 00:57:27;;;;;;;22.02;17.13;;;9.00;62.50;;;;;;349666;28;1064;-54
2023/12/30 00:57:38;;;;;;;20.58;16.55;;;9.00;62.50;;;;;;349520;28;1198;-55
2023/12/30 00:57:49;;;;;;;20.53;16.67;;;9.00;62.40;;;;;;349680;28;1091;-55
2023/12/30 00:58:00;;;;;;;19.75;16.58;;;9.00;62.40;;;;;;349539;28;1048;-55
2023/12/30 00:58:10;;;;;;;20.95;16.48;;;9.00;62.40;;;;;;349419;28;1793;-56
2023/12/30 00:58:21;;;;;;;21.38;16.73;;;9.00;62.40;;;;;;349550;28;987;-55
2023/12/30 00:58:32;;;;;;;22.13;17.00;;;9.00;62.40;;;;;;349635;28;1051;-55